Flight Track Log - Related Links

Times and Time Zones

All times are in EDT time to prevent confusion due to time zone crossing. See the N220RF flight status page for this flight to view local times or setup timezone preferences in your user account.


Time Position Orientation Groundspeed Altitude Reporting Facility
EDT Latitude Longitude Course Direction KTS MPH feet Rate Location/Type
Fri 09:48:26 AM 41.4728 -83.7489 170° South 104 120 4,900  Level Indianapolis Center
Fri 09:49:28 AM 41.4408 -83.7453 175° South 115 132 5,700 774 Climbing Indianapolis Center
Fri 09:50:30 AM 41.4036 -83.7417 176° South 119 137 6,500 677 Climbing Indianapolis Center
Fri 09:51:00 AM 41.1836 -83.7128 170° South  Level Estimated
Fri 09:51:32 AM 41.3667 -83.7356 173° South 126 145 7,100  Level Indianapolis Center
Fri 09:51:57 AM 41.3456 -83.7308 170° South 144 166 7,500 776 Climbing Cleveland Center
Fri 09:52:00 AM 41.1424 -83.7031 170° South  Level Estimated
Fri 09:52:57 AM 41.3061 -83.7233 172° South 144 166 8,200  Level Cleveland Center
Fri 09:53:00 AM 41.1011 -83.6935 170° South  Level Estimated
Fri 09:53:57 AM 41.2667 -83.7186 175° South 142 163 8,800  Level Cleveland Center
Fri 09:54:57 AM 41.2272 -83.7086 169° South 148 170 9,300 400 Climbing Cleveland Center
Fri 09:55:57 AM 41.1878 -83.7039 175° South 156 180 9,600 150 Climbing Cleveland Center
Fri 09:56:57 AM 41.1419 -83.6961 173° South 166 191 9,600  Level Cleveland Center
Fri 09:57:57 AM 41.0964 -83.6886 173° South 166 191 9,600  Level Cleveland Center
Fri 09:58:57 AM 41.0550 -83.6811 172° South 166 191 9,600  Level Cleveland Center
Fri 09:59:57 AM 41.0133 -83.6708 169° South 166 191 9,600  Level Cleveland Center
Fri 10:00:57 AM 40.9681 -83.6578 168° South 166 191 9,600  Level Cleveland Center
Fri 10:01:57 AM 40.9222 -83.6472 170° South 161 185 9,600  Level Cleveland Center
Fri 10:02:57 AM 40.8789 -83.6314 165° South 166 191 9,600  Level Cleveland Center
Fri 10:03:57 AM 40.8333 -83.6211 170° South 160 184 9,600  Level Cleveland Center
Fri 10:04:57 AM 40.7900 -83.6081 167° South 160 184 9,600  Level Cleveland Center
Fri 10:05:57 AM 40.7422 -83.5978 171° South 160 184 9,600  Level Cleveland Center
Fri 10:08:05 AM 40.6439 -83.5778 171° South 164 189 9,600  Level Indianapolis Center
Fri 10:09:07 AM 40.5994 -83.5533 157° South 168 193 9,600  Level Indianapolis Center
Fri 10:09:41 AM 40.5711 -83.5519 178° South 169 194 9,600  Level Indianapolis Center
Fri 10:10:09 AM 40.5528 -83.5431 160° South 168 193 9,600  Level Indianapolis Center
Fri 10:11:11 AM 40.5067 -83.5369 174° South 167 192 9,600  Level Indianapolis Center
Fri 10:12:13 AM 40.4625 -83.5153 160° South 166 191 9,600  Level Indianapolis Center
Fri 10:13:15 AM 40.4167 -83.5003 166° South 168 193 9,600  Level Indianapolis Center
Fri 10:14:17 AM 40.3625 -83.4942 175° South 167 192 9,600  Level Indianapolis Center
Fri 10:15:22 AM 40.3133 -83.4956 181° South 165 190 9,600  Level Indianapolis Center
Fri 10:16:21 AM 40.2697 -83.4908 175° South 167 192 9,600  Level Indianapolis Center
Fri 10:17:18 AM 40.2256 -83.4928 182° South 166 191 9,600  Level Indianapolis Center
Fri 10:18:18 AM 40.1772 -83.4978 185° South 165 190 9,600  Level Indianapolis Center
Fri 10:19:19 AM 40.1308 -83.5003 182° South 166 191 9,600  Level Indianapolis Center
Fri 10:20:20 AM 40.0831 -83.4944 175° South 167 192 9,600  Level Indianapolis Center
Fri 10:21:21 AM 40.0378 -83.4833 169° South 167 192 9,600  Level Indianapolis Center
Fri 10:22:22 AM 39.9922 -83.4778 175° South 165 190 9,600  Level Indianapolis Center
Fri 10:23:23 AM 39.9444 -83.4719 175° South 166 191 9,600  Level Indianapolis Center
Fri 10:24:23 AM 39.8992 -83.4611 170° South 168 193 9,600  Level Indianapolis Center
Fri 10:25:24 AM 39.8522 -83.4444 165° South 167 192 9,600  Level Indianapolis Center
Fri 10:25:39 AM 39.8517 -83.4436 131° Southeast 168 193 9,600  Level Indianapolis Center
Fri 10:26:25 AM 39.8089 -83.4339 170° South 167 192 9,600  Level Indianapolis Center
Fri 10:26:41 AM 39.7969 -83.4294 164° South 166 191 9,600  Level Indianapolis Center
Fri 10:27:26 AM 39.7642 -83.4175 164° South 164 189 9,600  Level Indianapolis Center
Fri 10:27:44 AM 39.7533 -83.4106 154° Southeast 163 188 9,600  Level Indianapolis Center
Fri 10:28:27 AM 39.7175 -83.3956 162° South 165 190 9,600  Level Indianapolis Center
Fri 10:28:46 AM 39.7083 -83.3933 169° South 166 191 9,600  Level Indianapolis Center
Fri 10:29:48 AM 39.6631 -83.3864 173° South 163 188 9,600  Level Indianapolis Center
Fri 10:30:50 AM 39.6172 -83.3769 171° South 164 189 9,600  Level Indianapolis Center
Fri 10:31:52 AM 39.5758 -83.3544 157° South 161 185 9,600  Level Indianapolis Center
Fri 10:32:54 AM 39.5286 -83.3247 154° Southeast 160 184 9,600  Level Indianapolis Center
Fri 10:33:56 AM 39.4858 -83.3064 162° South 159 183 9,600  Level Indianapolis Center
Fri 10:34:58 AM 39.4431 -83.2908 164° South 159 183 9,600  Level Indianapolis Center
Fri 10:36:00 AM 39.4033 -83.2661 154° Southeast 159 183 9,600  Level Indianapolis Center
Fri 10:37:02 AM 39.3717 -83.2261 136° Southeast 157 181 9,600  Level Indianapolis Center
Fri 10:38:04 AM 39.3333 -83.1969 150° Southeast 157 181 9,600  Level Indianapolis Center
Fri 10:39:06 AM 39.2911 -83.1803 163° South 156 180 9,600  Level Indianapolis Center
Fri 10:40:08 AM 39.2403 -83.1761 176° South 155 178 9,600  Level Indianapolis Center
Fri 10:41:10 AM 39.1967 -83.1731 177° South 154 177 9,600  Level Indianapolis Center
Fri 10:42:12 AM 39.1553 -83.1719 179° South 150 173 9,600  Level Indianapolis Center
Fri 10:43:13 AM 39.1119 -83.1667 175° South 154 177 9,600  Level Indianapolis Center
Fri 10:44:15 AM 39.0697 -83.1603 173° South 153 176 9,600  Level Indianapolis Center
Fri 10:45:17 AM 39.0289 -83.1453 164° South 153 176 9,600  Level Indianapolis Center
Fri 10:46:19 AM 38.9889 -83.1278 161° South 152 175 9,600  Level Indianapolis Center
Fri 10:47:21 AM 38.9497 -83.1058 156° South 153 176 9,600  Level Indianapolis Center
Fri 10:48:23 AM 38.9003 -83.0872 164° South 153 176 9,600  Level Indianapolis Center
Fri 10:49:25 AM 38.8589 -83.0783 171° South 151 174 9,600  Level Indianapolis Center
Fri 10:50:26 AM 38.8169 -83.0736 175° South 151 174 9,600  Level Indianapolis Center
Fri 10:51:28 AM 38.7761 -83.0711 177° South 148 170 9,600  Level Indianapolis Center
Fri 10:52:30 AM 38.7347 -83.0578 166° South 153 176 9,600  Level Indianapolis Center
Fri 10:53:32 AM 38.6944 -83.0542 176° South 146 168 9,600  Level Indianapolis Center
Fri 10:54:33 AM 38.6522 -83.0614 188° South 151 174 9,600  Level Indianapolis Center
Fri 10:55:35 AM 38.6089 -83.0664 185° South 145 167 9,600  Level Indianapolis Center
Fri 10:56:37 AM 38.5703 -83.0811 197° South 145 167 9,600  Level Indianapolis Center
Fri 10:57:39 AM 38.5322 -83.1128 213° Southwest 139 160 9,600  Level Indianapolis Center
Fri 10:58:41 AM 38.4961 -83.1272 197° South 136 157 9,600  Level Indianapolis Center
Fri 10:59:42 AM 38.4569 -83.1364 190° South 140 161 9,600  Level Indianapolis Center
Fri 11:00:44 AM 38.4186 -83.1206 162° South 144 166 9,600  Level Indianapolis Center
Fri 11:01:46 AM 38.3794 -83.1056 163° South 146 168 9,600  Level Indianapolis Center
Fri 11:02:48 AM 38.3411 -83.0889 161° South 145 167 9,600  Level Indianapolis Center
Fri 11:03:50 AM 38.3089 -83.0558 141° Southeast 147 169 9,600  Level Indianapolis Center
Fri 11:04:52 AM 38.2681 -83.0292 153° Southeast 143 165 9,600  Level Indianapolis Center
Fri 11:05:53 AM 38.2297 -83.0106 159° South 146 168 9,600  Level Indianapolis Center
Fri 11:06:55 AM 38.1931 -82.9906 157° South 144 166 9,600  Level Indianapolis Center
Fri 11:07:57 AM 38.1536 -82.9817 170° South 144 166 9,600  Level Indianapolis Center
Fri 11:08:59 AM 38.1175 -82.9936 195° South 135 155 9,600  Level Indianapolis Center
Fri 11:10:01 AM 38.0778 -82.9875 173° South 139 160 9,600  Level Indianapolis Center
Fri 11:11:03 AM 38.0317 -82.9792 172° South 143 165 9,600  Level Indianapolis Center
Fri 11:12:04 AM 37.9917 -82.9694 169° South 146 168 9,600  Level Indianapolis Center
Fri 11:13:06 AM 37.9517 -82.9717 183° South 144 166 9,600  Level Indianapolis Center
Fri 11:14:08 AM 37.9119 -82.9744 183° South 143 165 9,600  Level Indianapolis Center
Fri 11:15:10 AM 37.8719 -82.9811 187° South 144 166 9,600  Level Indianapolis Center
Fri 11:16:12 AM 37.8331 -82.9886 189° South 142 163 9,600  Level Indianapolis Center
Fri 11:17:13 AM 37.7853 -82.9792 171° South 147 169 9,600  Level Indianapolis Center
Fri 11:18:15 AM 37.7444 -82.9819 183° South 148 170 9,600  Level Indianapolis Center
Fri 11:19:17 AM 37.7044 -82.9842 183° South 145 167 9,600  Level Indianapolis Center
Fri 11:20:19 AM 37.6656 -82.9789 174° South 141 162 9,600  Level Indianapolis Center
Fri 11:21:21 AM 37.6272 -82.9678 167° South 141 162 9,600  Level Indianapolis Center
Fri 11:22:23 AM 37.5881 -82.9683 181° South 141 162 9,600  Level Indianapolis Center
Fri 11:23:25 AM 37.5439 -82.9767 189° South 138 159 9,600  Level Indianapolis Center
Fri 11:24:27 AM 37.5056 -82.9825 187° South 138 159 9,600  Level Indianapolis Center
Fri 11:25:29 AM 37.4656 -82.9806 178° South 141 162 9,600  Level Indianapolis Center
Fri 11:26:30 AM 37.4275 -82.9839 184° South 139 160 9,600  Level Indianapolis Center
Fri 11:27:32 AM 37.3889 -82.9869 184° South 138 159 9,600  Level Indianapolis Center
Fri 11:28:34 AM 37.3497 -82.9803 172° South 140 161 9,600  Level Indianapolis Center
Fri 11:29:36 AM 37.3056 -82.9786 178° South 138 159 9,600  Level Indianapolis Center
Fri 11:30:38 AM 37.2667 -82.9678 167° South 140 161 9,600  Level Indianapolis Center
Fri 11:31:40 AM 37.2283 -82.9556 166° South 141 162 9,600  Level Indianapolis Center
Fri 11:32:42 AM 37.1903 -82.9542 178° South 138 159 9,600  Level Indianapolis Center
Fri 11:33:44 AM 37.1525 -82.9511 176° South 136 157 9,600  Level Indianapolis Center
Fri 11:34:46 AM 37.1153 -82.9442 172° South 136 157 9,600  Level Indianapolis Center
Fri 11:35:48 AM 37.0714 -82.9422 178° South 136 157 9,600  Level Indianapolis Center
Fri 11:36:50 AM 37.0350 -82.9453 184° South 133 153 9,600  Level Indianapolis Center
Fri 11:37:52 AM 36.9975 -82.9436 178° South 133 153 9,600  Level Indianapolis Center
Fri 11:38:54 AM 36.9606 -82.9342 168° South 134 154 9,600  Level Indianapolis Center
Fri 11:39:56 AM 36.9172 -82.9206 166° South 138 159 9,600 -97 Level Indianapolis Center
Fri 11:40:58 AM 36.8789 -82.9083 166° South 143 165 9,400 -194 Descending Indianapolis Center
Fri 11:42:00 AM 36.8417 -82.8992 169° South 141 162 9,200 -145 Descending Indianapolis Center
Fri 11:43:02 AM 36.8044 -82.8922 172° South 137 158 9,100 -290 Descending Indianapolis Center
Fri 11:44:04 AM 36.7606 -82.8736 161° South 141 162 8,600 -484 Descending Indianapolis Center
Fri 11:45:06 AM 36.7211 -82.8631 168° South 144 166 8,100 -290 Descending Indianapolis Center
Fri 11:46:08 AM 36.6875 -82.8511 164° South 136 157 8,000 -145 Descending Indianapolis Center
Fri 11:47:10 AM 36.6556 -82.8394 164° South 124 143 7,800 -242 Descending Indianapolis Center
Fri 11:48:12 AM 36.6200 -82.8411 182° South 127 146 7,500 -194 Descending Indianapolis Center
Fri 11:49:14 AM 36.5847 -82.8447 185° South 126 145 7,400 -48 Descending Indianapolis Center
Fri 11:50:16 AM 36.5456 -82.8442 179° South 122 140 7,400  Level Indianapolis Center
Fri 11:51:18 AM 36.5122 -82.8372 170° South 121 139 7,400  Level Indianapolis Center
Fri 11:52:20 AM 36.4786 -82.8244 163° South 124 143 7,400 17 Level Indianapolis Center
Fri 11:54:00 AM 36.4134 -82.8036 166° South  Level FlightAware Approximate
Fri 12:01:00 PM 36.1395 -82.7162 166° South  Level FlightAware Approximate
Fri 12:02:00 PM 36.1004 -82.7038 166° South  Level FlightAware Approximate
Fri 12:03:00 PM 36.0612 -82.6913 166° South  Level FlightAware Approximate
Fri 12:04:00 PM 36.0221 -82.6789 166° South  Level FlightAware Approximate
Fri 12:05:00 PM 35.9830 -82.6666 167° South  Level FlightAware Approximate
Fri 12:06:00 PM 35.9437 -82.6550 167° South  Level FlightAware Approximate
Fri 12:07:00 PM 35.9044 -82.6435 167° South  Level FlightAware Approximate
Fri 12:08:00 PM 35.8651 -82.6319 167° South  Level FlightAware Approximate
Fri 12:09:00 PM 35.8258 -82.6204 167° South  Level FlightAware Approximate
Fri 12:10:00 PM 35.7865 -82.6089 167° South  Level FlightAware Approximate
Fri 12:11:00 PM 35.7472 -82.5974 167° South  Level FlightAware Approximate
Fri 12:12:00 PM 35.7079 -82.5859 167° South  Level FlightAware Approximate
Fri 12:13:00 PM 35.6685 -82.5744 167° South  Level FlightAware Approximate
Fri 12:14:00 PM 35.6292 -82.5629 167° South  Level FlightAware Approximate
Fri 12:15:00 PM 35.5899 -82.5515 167° South  Level FlightAware Approximate
Fri 12:16:00 PM 35.5506 -82.5400 167° South  Level FlightAware Approximate
Fri 12:17:00 PM 35.5113 -82.5286 167° South  Level FlightAware Approximate
Fri 12:18:00 PM 35.4720 -82.5171 167° South  Level FlightAware Approximate
Fri 12:19:00 PM 35.4327 -82.5057 167° South  Level FlightAware Approximate
Fri 12:20:00 PM 35.3933 -82.4943 167° South  Level FlightAware Approximate
Fri 12:21:00 PM 35.3540 -82.4829 167° South  Level FlightAware Approximate
Fri 12:22:00 PM 35.3147 -82.4715 167° South  Level FlightAware Approximate
Fri 12:23:00 PM 35.2754 -82.4602 167° South  Level FlightAware Approximate
Fri 12:24:00 PM 35.2361 -82.4488 167° South  Level FlightAware Approximate
Fri 12:25:00 PM 35.1968 -82.4375 167° South  Level FlightAware Approximate
Fri 12:26:00 PM 35.1574 -82.4261 167° South  Level FlightAware Approximate
Fri 12:27:00 PM 35.1181 -82.4148 167° South  Level FlightAware Approximate
Fri 12:28:00 PM 35.0788 -82.4035 167° South  Level FlightAware Approximate
Fri 12:29:00 PM 35.0391 -82.3945 171° South  Level FlightAware Approximate
Fri 12:30:00 PM 34.9992 -82.3865 171° South  Level FlightAware Approximate
Fri 12:31:00 PM 34.9593 -82.3785 171° South  Level FlightAware Approximate
Fri 12:32:00 PM 34.9194 -82.3706 171° South  Level FlightAware Approximate
Fri 12:33:00 PM 34.8796 -82.3625 171° South  Level FlightAware Approximate
Fri 12:34:00 PM 34.8397 -82.3545 171° South  Level FlightAware Approximate
Fri 12:35:00 PM 34.7999 -82.3465 171° South  Level FlightAware Approximate
Fri 12:36:00 PM 34.7600 -82.3384 171° South  Level FlightAware Approximate
Fri 12:37:00 PM 34.7201 -82.3304 171° South  Level FlightAware Approximate
Fri 12:38:00 PM 34.6803 -82.3224 171° South  Level FlightAware Approximate
Fri 12:39:00 PM 34.6404 -82.3144 171° South  Level FlightAware Approximate
Fri 12:40:00 PM 34.6006 -82.3064 171° South  Level FlightAware Approximate
Fri 12:41:00 PM 34.5607 -82.2984 171° South  Level FlightAware Approximate
Fri 12:42:00 PM 34.5208 -82.2904 171° South  Level FlightAware Approximate
Fri 12:43:00 PM 34.4810 -82.2824 171° South  Level FlightAware Approximate
Fri 12:44:00 PM 34.4411 -82.2745 171° South  Level FlightAware Approximate
Fri 12:45:00 PM 34.4013 -82.2665 171° South  Level FlightAware Approximate
Fri 12:46:00 PM 34.3614 -82.2586 171° South  Level FlightAware Approximate
Fri 12:47:00 PM 34.3215 -82.2506 171° South  Level FlightAware Approximate
Fri 12:48:00 PM 34.2817 -82.2427 171° South  Level FlightAware Approximate
Fri 12:49:00 PM 34.2418 -82.2347 171° South  Level FlightAware Approximate
Fri 12:50:00 PM 34.2019 -82.2268 171° South  Level FlightAware Approximate
Fri 12:51:00 PM 34.1620 -82.2189 171° South  Level FlightAware Approximate
Fri 12:52:00 PM 34.1222 -82.2110 171° South  Level FlightAware Approximate
Fri 12:53:00 PM 34.0823 -82.2031 171° South  Level FlightAware Approximate
Fri 12:54:00 PM 34.0424 -82.1952 171° South  Level FlightAware Approximate
Fri 12:55:00 PM 34.0026 -82.1872 171° South  Level FlightAware Approximate
Fri 12:56:00 PM 33.9627 -82.1793 171° South  Level FlightAware Approximate
Fri 12:57:00 PM 33.9229 -82.1713 171° South  Level FlightAware Approximate
Fri 12:58:00 PM 33.8830 -82.1634 171° South  Level FlightAware Approximate
Fri 12:59:00 PM 33.8432 -82.1554 171° South  Level FlightAware Approximate
Fri 01:00:00 PM 33.8033 -82.1475 171° South  Level FlightAware Approximate
Fri 01:01:00 PM 33.7634 -82.1396 171° South  Level FlightAware Approximate
Fri 01:02:00 PM 33.7236 -82.1317 171° South  Level FlightAware Approximate
Fri 01:03:00 PM 33.6837 -82.1238 171° South  Level FlightAware Approximate
Fri 01:04:00 PM 33.6438 -82.1159 171° South  Level FlightAware Approximate
Fri 01:05:00 PM 33.6040 -82.1080 171° South  Level FlightAware Approximate
Fri 01:06:00 PM 33.5641 -82.1001 171° South  Level FlightAware Approximate
Fri 01:07:00 PM 33.5243 -82.0922 171° South  Level FlightAware Approximate
Fri 01:08:00 PM 33.4844 -82.0844 171° South  Level FlightAware Approximate
Fri 01:09:00 PM 33.4445 -82.0765 171° South  Level FlightAware Approximate
Fri 01:10:00 PM 33.4047 -82.0687 171° South  Level FlightAware Approximate
Fri 01:11:00 PM 33.3648 -82.0608 171° South  Level FlightAware Approximate
Fri 01:12:00 PM 33.3249 -82.0530 171° South  Level FlightAware Approximate
Fri 01:13:00 PM 33.2850 -82.0452 171° South  Level FlightAware Approximate
Fri 01:14:00 PM 33.2452 -82.0373 171° South  Level FlightAware Approximate
Fri 01:15:00 PM 33.2053 -82.0295 171° South  Level FlightAware Approximate
Fri 01:16:00 PM 33.1654 -82.0217 171° South  Level FlightAware Approximate
Fri 01:17:00 PM 33.1256 -82.0139 171° South  Level FlightAware Approximate
Fri 01:18:00 PM 33.0857 -82.0061 171° South  Level FlightAware Approximate
Fri 01:19:00 PM 33.0458 -81.9983 171° South  Level FlightAware Approximate
Fri 01:20:00 PM 33.0060 -81.9905 171° South  Level FlightAware Approximate
Fri 01:21:00 PM 32.9661 -81.9828 171° South  Level FlightAware Approximate
Fri 01:22:00 PM 32.9262 -81.9750 171° South  Level FlightAware Approximate
Fri 01:23:00 PM 32.8863 -81.9672 171° South  Level FlightAware Approximate
Fri 01:24:00 PM 32.8463 -81.9605 172° South  Level FlightAware Approximate
Fri 01:25:00 PM 32.8063 -81.9538 172° South  Level FlightAware Approximate
Fri 01:26:00 PM 32.7663 -81.9471 172° South  Level FlightAware Approximate
Fri 01:27:00 PM 32.7263 -81.9405 172° South  Level FlightAware Approximate
Fri 01:28:00 PM 32.6863 -81.9338 172° South  Level FlightAware Approximate
Fri 01:29:00 PM 32.6463 -81.9271 172° South  Level FlightAware Approximate
Fri 01:30:00 PM 32.6063 -81.9205 172° South  Level FlightAware Approximate
Fri 01:31:00 PM 32.5669 -81.9095 167° South  Level FlightAware Approximate
Fri 01:32:00 PM 32.5276 -81.8985 167° South  Level FlightAware Approximate
Fri 01:33:00 PM 32.4882 -81.8875 167° South  Level FlightAware Approximate
Fri 01:34:00 PM 32.4489 -81.8765 167° South  Level FlightAware Approximate
Fri 01:35:00 PM 32.4095 -81.8656 167° South  Level FlightAware Approximate
Fri 01:36:00 PM 32.3701 -81.8546 167° South  Level FlightAware Approximate
Fri 01:37:00 PM 32.3308 -81.8437 167° South  Level FlightAware Approximate
Fri 01:38:00 PM 32.2914 -81.8328 167° South  Level FlightAware Approximate
Fri 01:39:00 PM 32.2521 -81.8219 167° South  Level FlightAware Approximate
Fri 01:40:00 PM 32.2098 -81.8124 171° South  Level FlightAware Approximate
Fri 01:41:00 PM 32.1699 -81.8052 171° South  Level FlightAware Approximate
Fri 01:42:00 PM 32.1299 -81.7980 171° South  Level FlightAware Approximate
Fri 01:43:00 PM 32.0899 -81.7908 171° South  Level FlightAware Approximate
Fri 01:44:00 PM 32.0500 -81.7836 171° South  Level FlightAware Approximate
Fri 01:45:00 PM 32.0100 -81.7764 171° South  Level FlightAware Approximate
Fri 01:46:00 PM 31.9700 -81.7692 171° South  Level FlightAware Approximate
Fri 01:47:00 PM 31.9301 -81.7620 171° South  Level FlightAware Approximate
Fri 01:48:00 PM 31.8901 -81.7549 171° South  Level FlightAware Approximate
Fri 01:49:00 PM 31.8501 -81.7477 171° South  Level FlightAware Approximate
Fri 01:50:00 PM 31.8102 -81.7405 171° South  Level FlightAware Approximate
Fri 01:51:00 PM 31.7702 -81.7334 171° South  Level FlightAware Approximate
Fri 01:52:00 PM 31.7302 -81.7262 171° South  Level FlightAware Approximate
Fri 01:52:05 PM 33.2783 -82.1281 173° South 144 166 9,400  Level Atlanta Center
Fri 01:53:00 PM 31.6903 -81.7191 171° South  Level FlightAware Approximate
Fri 01:53:05 PM 33.2406 -82.1089 157° South 139 160 9,400  Level Atlanta Center
Fri 01:54:00 PM 31.6503 -81.7119 171° South  Level FlightAware Approximate
Fri 01:54:05 PM 33.2031 -82.1047 175° South 134 154 9,400  Level Atlanta Center
Fri 01:55:00 PM 31.6103 -81.7048 171° South  Level FlightAware Approximate
Fri 01:55:05 PM 33.1653 -82.0983 172° South 134 154 9,400  Level Atlanta Center
Fri 01:56:00 PM 31.5703 -81.6981 173° South  Level FlightAware Approximate
Fri 01:56:05 PM 33.1275 -82.0867 165° South 140 161 9,400  Level Atlanta Center
Fri 01:57:00 PM 31.5302 -81.6924 173° South  Level FlightAware Approximate
Fri 01:57:05 PM 33.0939 -82.0700 157° South 140 161 9,400  Level Atlanta Center
Fri 01:58:05 PM 33.0539 -82.0561 164° South 145 167 9,400  Level Atlanta Center
Fri 01:59:05 PM 33.0164 -82.0569 181° South 145 167 9,400  Level Atlanta Center
Fri 02:00:05 PM 32.9767 -82.0578 181° South 140 161 9,400  Level Atlanta Center
Fri 02:04:04 PM 32.8294 -82.0347 173° South 143 165 9,400  Level Jacksonville Center
Fri 02:05:04 PM 32.7939 -82.0078 147° Southeast 143 165 9,400  Level Jacksonville Center
Fri 02:06:04 PM 32.7625 -81.9858 150° Southeast 143 165 9,400  Level Jacksonville Center
Fri 02:07:04 PM 32.7250 -81.9914 187° South 131 151 9,400  Level Jacksonville Center
Fri 02:08:04 PM 32.6853 -81.9992 189° South 131 151 9,400  Level Jacksonville Center
Fri 02:09:04 PM 32.6497 -81.9969 177° South 136 157 9,400  Level Jacksonville Center
Fri 02:10:04 PM 32.6142 -81.9900 171° South 136 157 9,400  Level Jacksonville Center
Fri 02:11:04 PM 32.5786 -81.9778 164° South 142 163 9,400  Level Jacksonville Center
Fri 02:12:04 PM 32.5389 -81.9611 161° South 142 163 9,400  Level Jacksonville Center
Fri 02:13:04 PM 32.5053 -81.9417 154° Southeast 136 157 9,400  Level Jacksonville Center
Fri 02:14:04 PM 32.4656 -81.9372 175° South 134 154 9,400  Level Jacksonville Center
Fri 02:15:04 PM 32.4322 -81.9375 180° South 134 154 9,400  Level Jacksonville Center
Fri 02:16:04 PM 32.3906 -81.9406 184° South 141 162 9,400  Level Jacksonville Center
Fri 02:17:04 PM 32.3531 -81.9483 190° South 141 162 9,400  Level Jacksonville Center
Fri 02:18:04 PM 32.3175 -81.9314 158° South 136 157 9,400  Level Jacksonville Center
Fri 02:19:04 PM 32.2858 -81.9169 159° South 142 163 9,400  Level Jacksonville Center
Fri 02:20:04 PM 32.2483 -81.9025 162° South 136 157 9,400  Level Jacksonville Center
Fri 02:21:04 PM 32.2083 -81.8808 155° Southeast 141 162 9,400  Level Jacksonville Center
Fri 02:22:04 PM 32.1811 -81.8494 136° Southeast 141 162 9,400 -50 Level Jacksonville Center
Fri 02:23:04 PM 32.1475 -81.8300 154° Southeast 135 155 9,300 -50 Descending Jacksonville Center
Fri 02:24:04 PM 32.1139 -81.8183 164° South 140 161 9,300  Level Jacksonville Center
Fri 02:25:04 PM 32.0783 -81.8039 161° South 146 168 9,300  Level Jacksonville Center
Fri 02:26:04 PM 32.0344 -81.7922 167° South 141 162 9,300 -150 Level Jacksonville Center
Fri 02:28:00 PM 31.9668 -81.7884 177° South  Level FlightAware Approximate
Fri 02:29:04 PM 31.9111 -81.7889 177° South 157 181 8,700  Level Jacksonville Center
Fri 02:30:04 PM 31.8736 -81.7844 174° South 157 181 8,400 -150 Descending Jacksonville Center
Fri 02:31:04 PM 31.8358 -81.7750 168° South 149 171 8,400  Level Jacksonville Center
Fri 02:32:04 PM 31.8003 -81.7656 167° South 143 165 8,400  Level Jacksonville Center
Fri 02:33:04 PM 31.7669 -81.7539 163° South 143 165 8,400  Level Jacksonville Center
Fri 02:34:04 PM 31.7269 -81.7347 158° South 143 165 8,400 50 Level Jacksonville Center
Fri 02:35:04 PM 31.6914 -81.7158 156° South 143 165 8,500 50 Climbing Jacksonville Center
Fri 02:36:04 PM 31.6578 -81.6967 154° Southeast 138 159 8,500 -50 Level Jacksonville Center
Fri 02:37:04 PM 31.6242 -81.6872 167° South 133 153 8,400 -50 Descending Jacksonville Center
Fri 02:38:04 PM 31.5867 -81.6806 171° South 133 153 8,400  Level Jacksonville Center
Fri 02:39:04 PM 31.5469 -81.6761 175° South 139 160 8,400  Level Jacksonville Center
Fri 02:40:04 PM 31.5092 -81.6742 177° South 139 160 8,400  Level Jacksonville Center
Fri 02:41:04 PM 31.4758 -81.6747 181° South 139 160 8,400  Level Jacksonville Center
Fri 02:42:04 PM 31.4361 -81.6728 178° South 144 166 8,400  Level Jacksonville Center
Fri 02:43:04 PM 31.3964 -81.6611 166° South 137 158 8,400  Level Jacksonville Center
Fri 02:44:04 PM 31.3608 -81.6494 164° South 143 165 8,400  Level Jacksonville Center
Fri 02:45:04 PM 31.3231 -81.6400 168° South 137 158 8,400  Level Jacksonville Center
Fri 02:46:04 PM 31.2897 -81.6356 173° South 137 158 8,400  Level Jacksonville Center
Fri 02:47:04 PM 31.2519 -81.6314 175° South 137 158 8,400  Level Jacksonville Center
Fri 02:48:04 PM 31.2103 -81.6222 169° South 139 160 8,400  Level Jacksonville Center
Fri 02:49:04 PM 31.1747 -81.6131 168° South 139 160 8,400  Level Jacksonville Center
Fri 02:50:04 PM 31.1369 -81.6039 168° South 144 166 8,400 -400 Level Jacksonville Center
Fri 02:51:04 PM 31.0992 -81.5969 171° South 149 171 7,600 -850 Descending Jacksonville Center
Fri 02:52:04 PM 31.0575 -81.5950 178° South 149 171 6,700 -600 Descending Jacksonville Center
Fri 02:53:04 PM 31.0200 -81.5933 178° South 149 171 6,400 -150 Descending Jacksonville Center
Fri 02:54:04 PM 30.9822 -81.5936 180° South 143 165 6,400  Level Jacksonville Center
Fri 02:54:27 PM 30.9636 -81.5939 181° South 138 159 6,400  Level Jacksonville Center
Fri 02:55:04 PM 30.9467 -81.5917 174° South 138 159 6,400 62 Level Jacksonville Center
Fri 02:56:04 PM 30.9111 -81.5825 168° South 138 159 6,500  Climbing Jacksonville Center
Fri 02:57:04 PM 30.8778 -81.5806 177° South 133 153 6,400  Descending Jacksonville Center
Fri 02:58:04 PM 30.8425 -81.5933 197° South 133 153 6,500  Climbing Jacksonville Center
Fri 02:59:15 PM 30.7986 -81.5964 183° South 131 151 6,400 -100 Descending Jacksonville Center
Fri 03:00:04 PM 30.7694 -81.5917 172° South 128 147 6,300 -440 Descending Jacksonville Center
Fri 03:01:04 PM 30.7339 -81.5875 174° South 128 147 5,600 -700 Descending Jacksonville Center
Fri 03:02:04 PM 30.6961 -81.5831 174° South 128 147 4,900 -450 Descending Jacksonville Center
Fri 03:03:04 PM 30.6628 -81.5739 167° South 128 147 4,700 -320 Descending Jacksonville Center
Fri 03:03:19 PM 30.6481 -81.5717 173° South 130 150 4,500 -200 Descending Jacksonville Center
Fri 03:04:04 PM 30.6250 -81.5672 171° South 133 153 4,500  Level Jacksonville Center
Fri 03:04:21 PM 30.6125 -81.5650 171° South 128 147 4,500 -250 Level Jacksonville Center
Fri 03:05:16 PM 30.5789 -81.5631 177° South 126 145 4,200 -590 Descending Jacksonville Center
Fri 03:06:23 PM 30.5394 -81.5611 178° South 134 154 3,300 -891 Descending Jacksonville Center
Fri 03:07:24 PM 30.5039 -81.5544 171° South 126 145 2,300 -639 Descending Jacksonville Center
Fri 03:08:25 PM 30.4681 -81.5406 162° South 128 147 2,000 -246 Descending Jacksonville Center
Fri 03:09:26 PM 30.4283 -81.5386 178° South 140 161 1,800 -148 Descending Jacksonville Center
Fri 03:10:27 PM 30.3931 -81.5367 177° South 130 150 1,700 -246 Descending Jacksonville Center
Fri 03:11:28 PM 30.3597 -81.5469 195° South 117 135 1,300 -293 Descending Jacksonville Center
Fri 03:12:30 PM 30.3347 -81.5592 203° Southwest 87 100 1,100 -146 Descending Jacksonville Center
Fri 03:13:31 PM 30.3097 -81.5739 207° Southwest 87 100 1,000 -148 Descending Jacksonville Center
Fri 03:14:32 PM 30.3014 -81.5550 117° Southeast 73 84 800 -295 Descending Jacksonville Center
Fri 03:15:33 PM 30.3136 -81.5356 54° Northeast 72 83 400 -393 Descending Jacksonville Center
Fri 03:17:00 PM 30.3363 -81.5144 60° Northeast  Level Estimated

Login

Don't have an account? Register now (free) for customized features, flight alerts, and more!